Time;durP1;ratioP1;P1;durP2;ratioP2;P2;SDS_P1;SDS_P2;PMS_P1;PMS_P2;Temp;Humidity;BMP_temperature;BMP_pressure;BME280_temperature;BME280_humidity;BME280_pressure;Samples;Min_cycle;Max_cycle;Signal;HPM_P1;HPM_P2
2022/05/21 00:00:43;;;;;;;11.38;7.05;;;13.30;99.90;;;;;;5095139;28;20055;-75
2022/05/21 00:03:09;;;;;;;11.98;7.50;;;13.30;99.90;;;;;;5093907;28;20480;-75
2022/05/21 00:05:36;;;;;;;13.73;7.55;;;13.30;99.90;;;;;;5094772;28;20063;-75
2022/05/21 00:08:04;;;;;;;12.02;7.30;;;12.70;99.90;;;;;;5094548;28;20468;-75
2022/05/21 00:10:31;;;;;;;18.63;7.78;;;13.30;99.90;;;;;;5094323;28;20070;-74
2022/05/21 00:12:58;;;;;;;17.83;8.02;;;13.30;99.90;;;;;;5094592;28;20020;-75
2022/05/21 00:15:28;;;;;;;15.23;6.85;;;13.20;99.90;;;;;;5094760;28;20103;-74
2022/05/21 00:17:54;;;;;;;12.90;8.57;;;13.30;99.90;;;;;;5093629;28;20127;-76
2022/05/21 00:23:18;;;;;;;17.83;8.13;;;13.20;99.90;;;;;;5093927;28;20491;-74
2022/05/21 00:25:45;;;;;;;15.52;8.00;;;13.20;99.90;;;;;;5094568;28;20020;-74
2022/05/21 00:28:11;;;;;;;13.30;7.50;;;13.30;99.90;;;;;;5095770;28;20024;-75
2022/05/21 00:30:38;;;;;;;17.13;8.48;;;13.30;99.90;;;;;;5097036;28;20471;-75
2022/05/21 00:33:04;;;;;;;19.10;8.38;;;13.30;99.90;;;;;;5095251;28;20080;-74
2022/05/21 00:35:30;;;;;;;16.17;8.82;;;13.30;99.90;;;;;;5094579;28;20044;-74
2022/05/21 00:37:56;;;;;;;13.75;9.05;;;13.40;99.90;;;;;;5093433;28;20060;-74
2022/05/21 00:40:22;;;;;;;15.52;7.90;;;13.40;99.90;;;;;;5094230;28;20407;-75
2022/05/21 00:42:48;;;;;;;16.45;9.18;;;13.50;99.90;;;;;;5093810;28;20023;-76
2022/05/21 00:45:15;;;;;;;15.98;8.48;;;13.40;99.90;;;;;;5093440;28;20028;-75
2022/05/21 00:47:40;;;;;;;19.90;9.27;;;13.40;99.90;;;;;;5094414;28;20054;-75
2022/05/21 00:50:08;;;;;;;17.35;8.27;;;13.40;99.90;;;;;;5093980;28;20100;-74
2022/05/21 00:52:36;;;;;;;17.02;9.30;;;13.40;99.90;;;;;;5093365;28;20035;-74
2022/05/21 00:55:08;;;;;;;18.73;8.93;;;13.40;99.90;;;;;;5093150;28;20028;-75
2022/05/21 00:57:42;;;;;;;20.20;8.30;;;13.40;99.90;;;;;;5093522;28;20515;-74
2022/05/21 01:00:22;;;;;;;18.85;7.85;;;13.40;99.90;;;;;;5092960;28;20490;-75
2022/05/21 01:02:53;;;;;;;12.77;7.88;;;13.40;99.90;;;;;;5093015;28;20028;-75
2022/05/21 01:05:22;;;;;;;11.07;7.55;;;13.40;99.90;;;;;;5093234;28;20043;-76
2022/05/21 01:07:50;;;;;;;12.85;7.45;;;13.40;99.90;;;;;;5093655;28;20158;-75
2022/05/21 01:10:20;;;;;;;15.60;8.25;;;13.50;99.90;;;;;;5093656;28;20044;-75
2022/05/21 01:12:51;;;;;;;19.13;7.77;;;13.50;99.90;;;;;;5093076;28;20388;-74
2022/05/21 01:15:37;;;;;;;21.08;7.50;;;13.40;99.90;;;;;;5093538;28;20414;-74
2022/05/21 01:18:06;;;;;;;13.18;7.57;;;13.50;99.90;;;;;;5093058;28;20528;-75
2022/05/21 01:20:41;;;;;;;15.00;7.18;;;13.50;99.90;;;;;;5092491;28;20043;-73
2022/05/21 01:23:07;;;;;;;15.50;7.13;;;13.50;99.90;;;;;;5093260;28;20044;-74
2022/05/21 01:25:35;;;;;;;18.15;7.32;;;13.50;99.90;;;;;;5093495;28;20398;-73
2022/05/21 01:28:02;;;;;;;12.82;6.57;;;13.50;99.90;;;;;;5092546;28;20034;-74
2022/05/21 01:30:43;;;;;;;20.75;6.78;;;13.50;99.90;;;;;;5093253;28;20020;-74
2022/05/21 01:33:12;;;;;;;19.52;7.57;;;13.50;99.90;;;;;;5092158;28;20026;-73
2022/05/21 01:35:40;;;;;;;13.02;7.65;;;13.50;99.90;;;;;;5093477;28;20024;-74
2022/05/21 01:38:07;;;;;;;16.65;7.90;;;13.50;99.90;;;;;;5093119;28;20024;-75
2022/05/21 01:40:33;;;;;;;20.80;8.27;;;13.50;99.90;;;;;;5092493;28;20036;-74
2022/05/21 01:45:45;;;;;;;18.08;7.43;;;13.50;99.90;;;;;;5093045;28;20417;-73
2022/05/21 01:48:11;;;;;;;28.58;8.95;;;13.50;99.90;;;;;;5092193;28;20132;-73
2022/05/21 01:50:38;;;;;;;20.13;8.85;;;13.60;99.90;;;;;;5092961;28;20028;-74
2022/05/21 01:53:04;;;;;;;17.45;7.22;;;13.60;99.90;;;;;;5092445;28;20040;-74
2022/05/21 01:55:30;;;;;;;14.80;6.75;;;13.60;99.90;;;;;;5092154;28;20383;-73
2022/05/21 01:57:56;;;;;;;18.38;8.02;;;13.60;99.90;;;;;;5092107;28;20055;-75
2022/05/21 02:00:22;;;;;;;26.40;8.80;;;13.60;99.90;;;;;;5092843;28;20064;-75
2022/05/21 02:02:47;;;;;;;16.92;7.20;;;13.60;99.90;;;;;;5091787;28;20387;-75
2022/05/21 02:05:13;;;;;;;26.33;7.80;;;13.60;99.90;;;;;;5092589;28;20032;-74
2022/05/21 02:07:39;;;;;;;18.42;7.43;;;13.50;99.90;;;;;;5092602;28;20073;-74
2022/05/21 02:10:06;;;;;;;21.70;7.15;;;13.60;99.90;;;;;;5091500;28;20047;-74
2022/05/21 02:12:32;;;;;;;17.45;6.47;;;13.60;99.90;;;;;;5091706;28;20048;-73
2022/05/21 02:14:58;;;;;;;19.88;6.88;;;13.60;99.90;;;;;;5092074;28;20427;-73
2022/05/21 02:17:24;;;;;;;14.30;6.05;;;13.60;99.90;;;;;;5091739;28;20484;-75
2022/05/21 02:19:49;;;;;;;20.83;6.85;;;13.60;99.90;;;;;;5091990;28;20071;-73
2022/05/21 02:22:16;;;;;;;18.95;6.45;;;13.60;99.90;;;;;;5091704;28;20056;-74
2022/05/21 02:24:42;;;;;;;15.93;5.13;;;13.60;99.90;;;;;;5092266;28;20039;-74
2022/05/21 02:27:12;;;;;;;19.23;5.65;;;13.50;99.90;;;;;;5091993;28;20450;-74
2022/05/21 02:29:38;;;;;;;23.48;5.22;;;13.50;99.90;;;;;;5091937;28;20083;-74
2022/05/21 02:32:04;;;;;;;22.92;4.68;;;13.40;99.90;;;;;;5092105;28;20024;-75
2022/05/21 02:34:30;;;;;;;20.52;4.35;;;13.40;99.90;;;;;;5092386;28;20062;-74
2022/05/21 02:39:40;;;;;;;19.50;4.78;;;13.40;99.90;;;;;;5092743;28;20161;-73
2022/05/21 02:42:43;;;;;;;25.02;5.85;;;13.40;99.90;;;;;;5092135;28;20077;-73
2022/05/21 02:44:52;;;;;;;18.33;3.72;;;13.40;99.90;;;;;;5091133;28;20093;-75
2022/05/21 02:47:18;;;;;;;23.33;4.72;;;13.50;99.90;;;;;;5092338;28;20029;-74
2022/05/21 02:49:43;;;;;;;20.38;4.03;;;13.50;99.90;;;;;;5092115;28;20028;-74
2022/05/21 02:52:09;;;;;;;19.02;3.67;;;13.40;99.90;;;;;;5091144;28;20022;-74
2022/05/21 02:54:34;;;;;;;28.80;5.10;;;13.40;99.90;;;;;;5092290;28;20377;-74
2022/05/21 02:57:00;;;;;;;22.92;4.57;;;13.40;99.90;;;;;;5091820;28;20404;-75
2022/05/21 02:59:28;;;;;;;21.52;4.05;;;13.30;99.90;;;;;;5091375;28;20077;-74
2022/05/21 03:01:53;;;;;;;19.85;3.33;;;13.30;99.90;;;;;;5091818;28;20024;-73
2022/05/21 03:04:19;;;;;;;17.58;3.95;;;13.20;99.90;;;;;;5091689;28;20039;-74
2022/05/21 03:06:45;;;;;;;15.45;3.78;;;13.20;99.90;;;;;;5091433;28;20032;-74
2022/05/21 03:11:54;;;;;;;17.33;3.88;;;13.10;99.90;;;;;;5091002;28;20093;-74
2022/05/21 03:14:20;;;;;;;22.27;3.90;;;13.10;99.90;;;;;;5091877;28;20071;-75
2022/05/21 03:16:45;;;;;;;19.48;4.38;;;13.10;99.90;;;;;;5092045;28;20032;-74
2022/05/21 03:19:11;;;;;;;24.52;4.53;;;13.10;99.90;;;;;;5090896;28;20077;-75
2022/05/21 03:21:37;;;;;;;19.10;3.83;;;13.00;99.90;;;;;;5092463;28;20020;-74
2022/05/21 03:24:03;;;;;;;18.02;3.38;;;13.10;99.90;;;;;;5101051;28;20056;-74
2022/05/21 03:26:30;;;;;;;22.88;3.70;;;13.00;99.90;;;;;;5099361;28;20022;-74
2022/05/21 03:28:56;;;;;;;23.33;4.68;;;13.00;99.90;;;;;;5095033;28;20111;-74
2022/05/21 03:31:21;;;;;;;24.50;4.10;;;13.00;99.90;;;;;;5095455;28;20107;-74
2022/05/21 03:33:47;;;;;;;18.35;3.90;;;12.90;99.90;;;;;;5094555;28;20031;-74
2022/05/21 03:36:12;;;;;;;12.90;3.90;;;12.90;99.90;;;;;;5095305;28;20028;-74
2022/05/21 03:38:38;;;;;;;17.13;3.20;;;12.90;99.90;;;;;;5095298;28;20031;-75
2022/05/21 03:41:03;;;;;;;13.68;3.47;;;12.90;99.90;;;;;;5094169;28;20035;-74
2022/05/21 03:43:29;;;;;;;17.90;3.15;;;12.90;99.90;;;;;;5095320;28;20050;-73
2022/05/21 03:45:55;;;;;;;12.88;2.92;;;12.80;99.90;;;;;;5095084;28;20055;-74
2022/05/21 03:48:21;;;;;;;22.40;3.65;;;12.70;99.90;;;;;;5094501;28;20138;-74
2022/05/21 03:50:46;;;;;;;17.08;3.60;;;12.80;99.90;;;;;;5095426;28;20484;-74
2022/05/21 03:53:14;;;;;;;25.83;4.25;;;12.90;99.90;;;;;;5094681;28;20024;-74
2022/05/21 03:55:40;;;;;;;13.55;3.58;;;12.80;99.90;;;;;;5094481;28;20089;-74
2022/05/21 03:58:06;;;;;;;12.95;2.90;;;12.80;99.90;;;;;;5094539;28;20079;-74
2022/05/21 04:00:32;;;;;;;14.80;4.00;;;12.80;99.90;;;;;;5094627;28;20036;-75
2022/05/21 04:02:59;;;;;;;12.05;3.92;;;12.80;99.90;;;;;;5094146;28;20031;-74
2022/05/21 04:05:25;;;;;;;17.27;3.22;;;12.90;99.90;;;;;;5095088;28;20032;-74
2022/05/21 04:07:50;;;;;;;18.00;3.42;;;12.80;99.90;;;;;;5093935;28;20081;-75
2022/05/21 04:10:18;;;;;;;18.83;3.10;;;12.90;99.90;;;;;;5094658;28;20368;-75
2022/05/21 04:12:43;;;;;;;22.48;3.95;;;12.90;99.90;;;;;;5094982;28;20028;-74
2022/05/21 04:15:10;;;;;;;20.20;3.65;;;12.90;99.90;;;;;;5093673;28;20069;-74
2022/05/21 04:17:36;;;;;;;16.73;3.75;;;12.90;99.90;;;;;;5094510;28;20032;-74
2022/05/21 04:20:04;;;;;;;17.63;3.20;;;12.90;99.90;;;;;;5094430;28;20395;-75
2022/05/21 04:22:29;;;;;;;9.65;3.00;;;12.80;99.90;;;;;;5093944;28;20028;-74
2022/05/21 04:24:55;;;;;;;14.23;3.08;;;12.80;99.90;;;;;;5094182;28;20024;-74
2022/05/21 04:27:21;;;;;;;19.73;3.03;;;12.80;99.90;;;;;;5094749;28;20035;-76
2022/05/21 04:29:46;;;;;;;16.48;3.45;;;12.80;99.90;;;;;;5093917;28;20024;-74
2022/05/21 04:32:12;;;;;;;11.68;3.67;;;12.70;99.90;;;;;;5093997;28;20035;-74
2022/05/21 04:34:37;;;;;;;18.10;2.95;;;12.80;99.90;;;;;;5094302;28;20020;-74
2022/05/21 04:37:03;;;;;;;13.77;3.95;;;12.80;99.90;;;;;;5092225;28;20036;-75
2022/05/21 04:39:29;;;;;;;9.48;2.67;;;12.80;99.90;;;;;;5094069;28;20032;-75
2022/05/21 04:41:55;;;;;;;14.88;2.75;;;12.80;99.90;;;;;;5093793;28;20016;-74
2022/05/21 04:44:22;;;;;;;14.27;2.55;;;12.80;99.90;;;;;;5093425;28;20032;-74
2022/05/21 04:46:47;;;;;;;19.33;3.13;;;12.90;99.90;;;;;;5093874;28;20024;-74
2022/05/21 04:49:13;;;;;;;17.65;3.13;;;12.80;99.90;;;;;;5094146;28;20490;-74
2022/05/21 04:51:38;;;;;;;15.90;3.28;;;12.80;99.90;;;;;;5093381;28;20532;-74
2022/05/21 04:54:05;;;;;;;14.35;3.08;;;12.90;99.90;;;;;;5093715;28;20042;-73
2022/05/21 04:56:31;;;;;;;18.98;3.67;;;12.90;99.90;;;;;;5093519;28;20047;-73
2022/05/21 04:58:57;;;;;;;13.27;3.05;;;13.00;99.90;;;;;;5093200;28;20066;-75
2022/05/21 05:01:23;;;;;;;15.40;3.20;;;13.00;99.90;;;;;;5093777;28;20028;-74
2022/05/21 05:03:49;;;;;;;14.68;2.78;;;13.10;99.90;;;;;;5093609;28;20035;-76
2022/05/21 05:06:15;;;;;;;13.27;3.42;;;13.10;99.90;;;;;;5093268;28;20472;-75
2022/05/21 05:08:40;;;;;;;17.13;2.83;;;13.20;99.90;;;;;;5093494;28;20066;-74
2022/05/21 05:11:06;;;;;;;14.35;3.60;;;13.20;99.90;;;;;;5092435;28;20028;-75
2022/05/21 05:13:31;;;;;;;14.52;3.17;;;13.30;99.90;;;;;;5093311;28;20026;-75
2022/05/21 05:15:57;;;;;;;10.48;3.08;;;13.40;99.90;;;;;;5092976;28;20043;-74
2022/05/21 05:18:23;;;;;;;11.77;3.03;;;13.40;99.90;;;;;;5092741;28;20032;-73
2022/05/21 05:20:49;;;;;;;14.32;3.13;;;13.50;99.90;;;;;;5093096;28;20040;-75
2022/05/21 05:23:15;;;;;;;19.40;3.17;;;13.50;99.90;;;;;;5093284;28;20431;-75
2022/05/21 05:25:41;;;;;;;21.77;3.20;;;13.50;99.90;;;;;;5092507;28;20020;-74
2022/05/21 05:28:20;;;;;;;13.13;2.65;;;12.90;99.90;;;;;;5077560;28;20032;-74
2022/05/21 05:30:49;;;;;;;16.47;3.23;;;13.60;99.90;;;;;;5092947;28;20028;-74
2022/05/21 05:33:18;;;;;;;15.10;3.15;;;13.60;99.90;;;;;;5072790;28;20121;-74
2022/05/21 05:35:45;;;;;;;15.45;2.92;;;13.60;99.90;;;;;;5080334;28;20020;-74
2022/05/21 05:38:12;;;;;;;17.73;2.72;;;13.60;99.90;;;;;;5074912;28;20038;-74
2022/05/21 05:40:39;;;;;;;15.75;3.58;;;13.70;99.90;;;;;;5071874;28;20039;-74
2022/05/21 05:43:05;;;;;;;14.38;2.80;;;13.70;99.90;;;;;;5074381;28;20068;-74
2022/05/21 05:45:31;;;;;;;11.50;2.67;;;13.80;99.90;;;;;;5089022;28;20066;-74
2022/05/21 05:47:57;;;;;;;11.25;2.45;;;13.90;99.90;;;;;;5092040;28;20048;-74
2022/05/21 05:50:23;;;;;;;16.08;4.00;;;13.90;99.90;;;;;;5083293;28;20035;-74
2022/05/21 05:52:49;;;;;;;12.15;3.33;;;13.90;99.90;;;;;;5072254;28;20043;-75
2022/05/21 05:55:15;;;;;;;11.50;2.70;;;14.00;99.90;;;;;;5072072;28;20472;-74
2022/05/21 05:57:40;;;;;;;19.33;3.15;;;14.00;99.90;;;;;;5072245;28;20048;-74
2022/05/21 06:00:07;;;;;;;14.68;3.17;;;14.10;99.90;;;;;;5072028;28;20040;-74
2022/05/21 06:05:20;;;;;;;13.18;2.60;;;14.20;99.90;;;;;;5072376;28;20040;-74
2022/05/21 06:07:52;;;;;;;18.77;3.97;;;14.20;99.90;;;;;;5071502;28;20020;-73
2022/05/21 06:10:22;;;;;;;19.25;4.15;;;14.20;99.90;;;;;;5085603;28;20110;-74
2022/05/21 06:12:48;;;;;;;14.27;3.20;;;14.20;99.90;;;;;;5090881;28;20020;-74
2022/05/21 06:15:14;;;;;;;14.93;3.10;;;14.20;99.90;;;;;;5092366;28;20055;-74
2022/05/21 06:17:40;;;;;;;13.15;2.83;;;14.30;99.90;;;;;;5094097;28;20407;-74
2022/05/21 06:20:10;;;;;;;15.35;3.33;;;14.30;99.90;;;;;;5092282;28;20036;-74
2022/05/21 06:22:36;;;;;;;13.15;2.70;;;14.30;99.90;;;;;;5089692;28;20054;-73
2022/05/21 06:25:03;;;;;;;10.43;2.50;;;14.30;99.90;;;;;;5089693;28;20052;-74
2022/05/21 06:27:28;;;;;;;11.20;3.17;;;14.30;99.90;;;;;;5090364;28;20154;-74
2022/05/21 06:29:54;;;;;;;17.10;3.00;;;14.30;99.90;;;;;;5089471;28;20118;-74
2022/05/21 06:32:19;;;;;;;13.13;3.08;;;14.40;99.90;;;;;;5090952;28;20099;-74
2022/05/21 06:34:45;;;;;;;13.35;3.40;;;14.40;99.90;;;;;;5090815;28;20020;-74
2022/05/21 06:37:12;;;;;;;11.32;2.95;;;14.40;99.90;;;;;;5089721;28;20679;-74
2022/05/21 06:39:42;;;;;;;20.10;3.78;;;14.50;99.90;;;;;;5090790;28;20077;-74
2022/05/21 06:42:08;;;;;;;15.20;2.53;;;14.50;99.90;;;;;;5089799;28;20028;-74
2022/05/21 06:44:34;;;;;;;13.98;3.17;;;14.50;99.90;;;;;;5090799;28;20440;-74
2022/05/21 06:47:00;;;;;;;18.20;3.28;;;14.50;99.90;;;;;;5090921;28;20130;-74
2022/05/21 06:49:26;;;;;;;13.48;3.20;;;14.60;99.90;;;;;;5091178;28;20468;-74
2022/05/21 06:51:56;;;;;;;15.80;2.92;;;14.60;99.90;;;;;;5090599;28;20024;-74
2022/05/21 06:54:23;;;;;;;10.93;2.93;;;14.60;99.90;;;;;;5088765;28;20150;-73
2022/05/21 06:56:49;;;;;;;23.30;3.47;;;14.70;99.90;;;;;;5090018;28;20071;-74
2022/05/21 06:59:16;;;;;;;12.82;2.85;;;14.70;99.90;;;;;;5092203;28;20032;-74
2022/05/21 07:01:42;;;;;;;14.18;3.38;;;14.70;99.90;;;;;;5095367;28;20012;-74
2022/05/21 07:04:08;;;;;;;12.07;2.63;;;14.80;99.90;;;;;;5094332;28;20032;-74
2022/05/21 07:09:21;;;;;;;17.90;3.28;;;14.90;99.90;;;;;;5095256;28;20027;-74
2022/05/21 07:11:51;;;;;;;10.30;2.83;;;15.00;99.90;;;;;;5094602;28;20028;-74
2022/05/21 07:14:17;;;;;;;16.48;3.45;;;15.00;99.90;;;;;;5095112;28;20032;-73
2022/05/21 07:16:43;;;;;;;14.93;2.83;;;15.00;99.90;;;;;;5095070;28;20024;-74
2022/05/21 07:19:09;;;;;;;13.75;3.47;;;15.00;99.90;;;;;;5094410;28;20051;-73
2022/05/21 07:21:35;;;;;;;10.43;2.10;;;15.20;99.90;;;;;;5093844;28;20468;-74
2022/05/21 07:24:04;;;;;;;16.65;4.30;;;15.30;99.90;;;;;;5094545;28;20016;-74
2022/05/21 07:26:30;;;;;;;14.30;2.30;;;15.30;99.90;;;;;;5094538;28;20016;-73
2022/05/21 07:28:57;;;;;;;9.02;2.45;;;15.40;99.90;;;;;;5094747;28;20070;-73
2022/05/21 07:31:22;;;;;;;10.02;3.42;;;15.50;99.90;;;;;;5091867;28;20074;-73
2022/05/21 07:33:48;;;;;;;9.77;2.40;;;15.50;99.90;;;;;;5094103;28;20028;-74
2022/05/21 07:36:14;;;;;;;13.27;2.58;;;15.60;99.90;;;;;;5094755;28;20024;-74
2022/05/21 07:38:39;;;;;;;12.98;2.83;;;15.60;99.90;;;;;;5094328;28;20034;-74
2022/05/21 07:41:06;;;;;;;12.77;2.50;;;15.60;99.90;;;;;;5093974;28;20035;-74
2022/05/21 07:43:32;;;;;;;9.13;2.67;;;15.80;99.90;;;;;;5094617;28;20020;-73
2022/05/21 07:46:00;;;;;;;10.43;2.58;;;15.90;99.90;;;;;;5093354;28;20460;-74
2022/05/21 07:48:26;;;;;;;9.88;2.88;;;15.90;99.90;;;;;;5094690;28;20020;-74
2022/05/21 07:50:58;;;;;;;16.73;2.47;;;15.90;99.90;;;;;;5094391;28;20069;-73
2022/05/21 07:53:28;;;;;;;12.98;2.63;;;15.80;99.90;;;;;;5091804;28;20031;-75
2022/05/21 07:55:55;;;;;;;14.13;2.80;;;15.80;99.90;;;;;;5094672;28;20483;-74
2022/05/21 07:58:23;;;;;;;8.90;2.47;;;15.80;99.90;;;;;;5094471;28;20060;-72
2022/05/21 08:00:49;;;;;;;13.55;2.92;;;16.00;99.90;;;;;;5093605;28;20068;-72
2022/05/21 08:03:15;;;;;;;13.23;2.92;;;16.10;99.90;;;;;;5075679;28;20043;-73
2022/05/21 08:05:42;;;;;;;14.27;2.70;;;16.30;99.90;;;;;;5094275;28;20024;-69
2022/05/21 08:08:08;;;;;;;13.25;2.63;;;16.40;99.90;;;;;;5092527;28;20024;-72
2022/05/21 08:10:36;;;;;;;16.73;3.75;;;16.40;99.90;;;;;;5093272;28;20108;-73
2022/05/21 08:13:02;;;;;;;15.50;3.40;;;16.20;99.90;;;;;;5094155;28;20056;-73
2022/05/21 08:15:29;;;;;;;17.58;3.53;;;16.20;99.90;;;;;;5094442;28;20028;-73
2022/05/21 08:17:54;;;;;;;22.90;4.45;;;16.30;99.90;;;;;;5094310;28;20028;-73
2022/05/21 08:20:20;;;;;;;10.82;2.65;;;16.50;99.90;;;;;;5094358;28;20097;-72
2022/05/21 08:28:16;;;;;;;8.68;2.60;;;16.40;99.90;;;;;;5092815;28;20035;-73
2022/05/21 08:30:46;;;;;;;9.48;2.80;;;16.30;99.90;;;;;;5093529;28;20099;-72
2022/05/21 08:33:12;;;;;;;;;;;16.30;99.90;;;;;;5094171;28;20111;-72
2022/05/21 08:35:39;;;;;;;17.67;3.67;;;16.30;99.90;;;;;;5093644;28;20077;-72
2022/05/21 08:38:09;;;;;;;17.50;4.18;;;16.30;99.90;;;;;;5093886;28;20032;-72
2022/05/21 08:40:49;;;;;;;13.48;3.10;;;16.50;99.90;;;;;;5094257;28;20523;-73
2022/05/21 08:43:20;;;;;;;9.85;2.63;;;16.70;99.90;;;;;;5093518;28;20028;-73
2022/05/21 08:46:05;;;;;;;13.93;3.28;;;16.70;99.90;;;;;;5094286;28;20670;-73
2022/05/21 08:48:32;;;;;;;14.90;4.03;;;16.60;99.90;;;;;;5093679;28;20100;-73
2022/05/21 08:51:02;;;;;;;10.85;2.70;;;16.70;99.90;;;;;;5093595;28;20031;-74
2022/05/21 08:53:29;;;;;;;20.05;4.45;;;16.70;99.90;;;;;;5093876;28;20027;-73
2022/05/21 08:55:58;;;;;;;9.80;3.55;;;16.70;99.90;;;;;;5093549;28;20035;-72
2022/05/21 08:58:35;;;;;;;13.13;3.13;;;16.80;99.90;;;;;;5093259;28;20491;-73
2022/05/21 09:01:01;;;;;;;15.05;2.95;;;16.80;99.90;;;;;;5093673;28;20036;-74
2022/05/21 09:03:27;;;;;;;12.77;3.42;;;16.80;99.90;;;;;;5093190;28;20044;-74
2022/05/21 09:05:58;;;;;;;14.63;3.90;;;16.80;99.90;;;;;;5093570;28;20024;-74
2022/05/21 09:08:49;;;;;;;16.13;4.25;;;16.90;99.90;;;;;;5098289;28;20028;-74
2022/05/21 09:11:24;;;;;;;15.35;4.28;;;17.00;99.90;;;;;;5097284;28;20451;-73
2022/05/21 09:14:04;;;;;;;10.05;3.92;;;17.20;99.90;;;;;;5093619;28;20115;-73
2022/05/21 09:19:21;;;;;;;;;;;17.00;99.90;;;;;;5093185;28;20059;-73
2022/05/21 09:21:48;;;;;;;12.20;3.40;;;17.10;99.90;;;;;;5093007;28;19905;-73
2022/05/21 09:24:34;;;;;;;10.25;3.90;;;17.30;99.90;;;;;;5092768;28;20377;-73
2022/05/21 09:27:00;;;;;;;17.17;4.78;;;17.40;99.90;;;;;;5092682;28;20035;-73
2022/05/21 09:29:33;;;;;;;14.05;4.43;;;17.50;99.90;;;;;;5093253;28;20063;-74
2022/05/21 09:32:15;;;;;;;10.95;4.45;;;17.80;99.90;;;;;;5092391;28;20387;-72
2022/05/21 09:34:40;;;;;;;11.18;4.25;;;17.80;99.90;;;;;;5093357;28;20020;-73
2022/05/21 09:37:14;;;;;;;13.38;4.47;;;17.80;99.90;;;;;;5092835;28;20028;-73
2022/05/21 09:39:41;;;;;;;14.70;4.05;;;17.90;99.90;;;;;;5092618;28;20042;-72
2022/05/21 09:45:32;;;;;;;16.80;4.20;;;17.90;99.90;;;;;;5111293;28;20078;-72
2022/05/21 09:48:03;;;;;;;11.70;3.65;;;18.00;99.90;;;;;;5103204;28;20042;-72
2022/05/21 09:50:30;;;;;;;20.40;4.00;;;18.00;99.90;;;;;;5107735;28;20035;-72
2022/05/21 09:52:56;;;;;;;12.13;3.83;;;18.10;99.90;;;;;;5102822;28;20032;-72
2022/05/21 09:55:27;;;;;;;10.52;4.25;;;18.20;99.90;;;;;;5110752;28;20027;-74
2022/05/21 09:57:54;;;;;;;7.65;3.80;;;18.20;99.90;;;;;;5098499;28;20064;-73
2022/05/21 10:00:31;;;;;;;12.02;3.33;;;18.10;99.90;;;;;;5100262;28;20808;-72
2022/05/21 10:03:04;;;;;;;8.75;3.22;;;18.10;99.90;;;;;;5092640;28;20402;-72
2022/05/21 10:05:43;;;;;;;11.43;3.50;;;18.20;99.90;;;;;;5093232;28;20038;-73
2022/05/21 10:11:08;;;;;;;10.05;3.33;;;18.00;99.90;;;;;;5093704;28;20039;-72
2022/05/21 10:13:33;;;;;;;15.15;2.95;;;17.90;99.90;;;;;;5097568;28;20039;-74
2022/05/21 10:16:20;;;;;;;11.40;2.58;;;18.00;99.90;;;;;;5090897;28;20020;-73
2022/05/21 10:18:48;;;;;;;10.77;3.20;;;18.10;99.90;;;;;;5095711;28;20019;-73
2022/05/21 10:21:31;;;;;;;13.45;3.17;;;18.00;99.90;;;;;;5098223;28;20063;-73
2022/05/21 10:24:16;;;;;;;12.20;2.88;;;17.90;99.90;;;;;;5088914;28;20161;-74
2022/05/21 10:26:51;;;;;;;11.45;3.28;;;18.00;99.90;;;;;;5090593;28;20031;-73
2022/05/21 10:29:34;;;;;;;13.57;3.72;;;18.10;99.90;;;;;;5090438;28;20099;-73
2022/05/21 10:32:21;;;;;;;19.15;3.58;;;18.10;99.90;;;;;;5091851;28;20032;-73
2022/05/21 10:35:25;;;;;;;9.63;2.85;;;18.10;99.90;;;;;;5090640;28;20024;-76
2022/05/21 10:38:24;;;;;;;8.23;2.75;;;18.20;99.90;;;;;;5091898;28;20036;-73
2022/05/21 10:40:52;;;;;;;11.52;3.20;;;18.30;99.90;;;;;;5091127;28;20043;-73
2022/05/21 10:43:52;;;;;;;13.73;3.17;;;18.50;99.90;;;;;;5091536;28;20051;-74
2022/05/21 10:46:32;;;;;;;12.75;2.97;;;18.70;99.90;;;;;;5091188;28;20039;-74
2022/05/21 10:49:04;;;;;;;13.93;3.00;;;18.80;99.90;;;;;;5091009;28;20032;-73
2022/05/21 10:51:33;;;;;;;15.52;3.90;;;18.70;99.90;;;;;;5089721;28;20052;-73
2022/05/21 10:54:32;;;;;;;9.37;3.00;;;18.70;99.90;;;;;;5091664;28;20031;-73
2022/05/21 10:57:21;;;;;;;8.20;2.97;;;18.60;99.90;;;;;;5086450;28;20032;-74
2022/05/21 10:59:49;;;;;;;12.45;3.42;;;18.50;99.90;;;;;;5042186;28;20135;-72
2022/05/21 11:02:33;;;;;;;13.60;2.80;;;18.40;99.90;;;;;;5089535;28;20054;-73
2022/05/21 11:05:23;;;;;;;13.23;2.92;;;18.30;99.90;;;;;;5088421;28;20047;-74
2022/05/21 11:08:04;;;;;;;13.73;2.92;;;18.40;99.90;;;;;;5090979;28;20062;-73
2022/05/21 11:10:47;;;;;;;11.90;2.53;;;18.50;99.90;;;;;;5090601;28;20502;-74
2022/05/21 11:13:36;;;;;;;13.25;2.60;;;18.70;99.90;;;;;;5091780;28;20027;-73
2022/05/21 11:16:19;;;;;;;9.20;2.70;;;18.80;99.90;;;;;;5091222;28;20027;-74
2022/05/21 11:18:57;;;;;;;7.93;2.60;;;18.70;99.90;;;;;;5091344;28;20058;-73
2022/05/21 11:21:31;;;;;;;9.07;2.90;;;18.70;99.90;;;;;;5090998;28;20027;-73
2022/05/21 11:24:03;;;;;;;9.50;2.10;;;18.80;99.90;;;;;;5089919;28;20028;-74
2022/05/21 11:26:38;;;;;;;6.65;2.13;;;19.00;99.90;;;;;;5091369;28;20027;-73
2022/05/21 11:29:43;;;;;;;10.88;2.63;;;19.10;99.90;;;;;;5091714;28;20074;-75
2022/05/21 11:38:28;;;;;;;9.80;2.85;;;19.60;99.90;;;;;;5091321;28;20028;-73
2022/05/21 11:41:25;;;;;;;8.88;2.22;;;19.60;99.90;;;;;;5091307;28;20044;-73
2022/05/21 11:47:14;;;;;;;7.55;2.30;;;19.30;99.90;;;;;;5094179;28;20039;-74
2022/05/21 11:49:57;;;;;;;7.20;2.28;;;19.20;99.90;;;;;;5094550;28;20030;-73
2022/05/21 11:52:31;;;;;;;10.18;2.25;;;19.40;99.90;;;;;;5094785;28;20024;-73
2022/05/21 11:54:56;;;;;;;11.13;2.08;;;19.60;99.90;;;;;;5095409;28;20107;-73
2022/05/21 11:57:35;;;;;;;14.60;2.53;;;19.60;99.90;;;;;;5095984;28;20067;-73
2022/05/21 12:00:07;;;;;;;17.35;2.72;;;19.50;99.90;;;;;;5098350;28;20043;-74
2022/05/21 12:02:41;;;;;;;11.52;2.67;;;19.40;99.90;;;;;;5096806;28;20036;-73
2022/05/21 12:05:11;;;;;;;9.85;2.50;;;19.20;99.90;;;;;;5094603;28;20064;-73
2022/05/21 12:07:43;;;;;;;;;;;19.20;99.90;;;;;;5094946;28;20103;-74
2022/05/21 12:10:26;;;;;;;20.45;3.30;;;19.20;99.90;;;;;;5094558;28;19904;-74
2022/05/21 12:13:12;;;;;;;9.70;2.90;;;19.20;99.90;;;;;;5094637;28;20020;-73
2022/05/21 12:15:42;;;;;;;9.25;2.55;;;19.30;99.90;;;;;;5094880;28;20051;-73
2022/05/21 12:18:42;;;;;;;11.45;3.00;;;19.40;99.90;;;;;;5094461;28;20043;-74
2022/05/21 12:21:37;;;;;;;10.98;2.70;;;19.50;99.90;;;;;;5094350;28;20047;-74
2022/05/21 12:24:32;;;;;;;12.57;2.60;;;19.50;99.90;;;;;;5094411;28;20016;-74
2022/05/21 12:27:05;;;;;;;11.68;3.33;;;19.60;99.90;;;;;;5093930;28;20023;-73
2022/05/21 12:29:40;;;;;;;8.75;2.47;;;19.50;99.90;;;;;;5094634;28;20036;-73
2022/05/21 12:32:23;;;;;;;9.43;2.42;;;19.50;99.90;;;;;;5094218;28;20133;-74
2022/05/21 12:34:58;;;;;;;5.85;2.33;;;19.60;99.90;;;;;;5093468;28;20031;-75
2022/05/21 12:37:34;;;;;;;14.13;2.97;;;19.70;99.90;;;;;;5094220;28;20020;-75
2022/05/21 12:40:29;;;;;;;9.35;2.80;;;20.00;99.90;;;;;;5094091;28;20139;-75
2022/05/21 12:43:13;;;;;;;10.48;2.42;;;20.20;99.90;;;;;;5093420;28;20062;-74
2022/05/21 12:45:44;;;;;;;10.65;2.72;;;20.50;99.90;;;;;;5094138;28;20028;-74
2022/05/21 12:48:18;;;;;;;8.13;2.20;;;20.40;99.90;;;;;;5093182;28;20016;-74
2022/05/21 12:50:51;;;;;;;8.02;2.20;;;20.20;99.90;;;;;;5094261;28;20028;-74
2022/05/21 12:53:29;;;;;;;7.13;2.15;;;20.00;99.90;;;;;;5094357;28;20097;-74
2022/05/21 12:56:15;;;;;;;13.80;2.63;;;20.30;99.90;;;;;;5092959;28;20039;-73
2022/05/21 12:58:41;;;;;;;4.97;1.92;;;20.60;99.80;;;;;;5093206;28;20051;-74
2022/05/21 13:01:06;;;;;;;8.23;2.20;;;20.50;99.40;;;;;;5093249;28;20036;-73
2022/05/21 13:03:34;;;;;;;11.70;2.25;;;20.50;99.90;;;;;;5093283;28;20062;-73
2022/05/21 13:06:09;;;;;;;6.50;2.30;;;20.60;99.90;;;;;;5093649;28;20418;-72
2022/05/21 13:08:39;;;;;;;11.30;2.45;;;20.80;99.40;;;;;;5093439;28;20412;-74
2022/05/21 13:11:14;;;;;;;8.70;2.10;;;20.50;99.30;;;;;;5093083;28;20058;-73
2022/05/21 13:13:42;;;;;;;8.30;2.78;;;20.20;99.90;;;;;;5093815;28;20024;-73
2022/05/21 13:16:17;;;;;;;6.50;1.90;;;19.90;99.60;;;;;;5093320;28;20059;-73
2022/05/21 13:19:20;;;;;;;7.70;2.80;;;19.90;99.90;;;;;;5093464;28;20073;-73
2022/05/21 13:22:09;;;;;;;9.07;2.08;;;20.00;99.90;;;;;;5093153;28;20028;-73
2022/05/21 13:25:01;;;;;;;10.38;2.40;;;19.80;99.90;;;;;;5093303;28;20028;-73
2022/05/21 13:27:27;;;;;;;9.25;2.90;;;19.80;99.90;;;;;;5094024;28;20047;-74
2022/05/21 13:29:54;;;;;;;16.48;2.90;;;19.80;99.90;;;;;;5093109;28;20464;-74
2022/05/21 13:32:25;;;;;;;11.07;2.55;;;19.70;99.80;;;;;;5093045;28;20035;-74
2022/05/21 13:34:53;;;;;;;11.70;2.05;;;19.70;99.90;;;;;;5092963;28;20078;-74